sensor_id;sensor_type;location;lat;lon;timestamp;P1;durP1;ratioP1;P2;durP2;ratioP2
57605;SDS011;43430;48.204;11.556;2023-07-13T00:00:10;8.18;;;2.85;;
57605;SDS011;43430;48.204;11.556;2023-07-13T00:02:36;4.82;;;3.13;;
57605;SDS011;43430;48.204;11.556;2023-07-13T00:05:02;5.38;;;3.17;;
57605;SDS011;43430;48.204;11.556;2023-07-13T00:07:28;6.75;;;3.47;;
57605;SDS011;43430;48.204;11.556;2023-07-13T00:09:53;6.72;;;3.35;;
57605;SDS011;43430;48.204;11.556;2023-07-13T00:12:32;6.75;;;3.47;;
57605;SDS011;43430;48.204;11.556;2023-07-13T00:15:01;7.35;;;2.92;;
57605;SDS011;43430;48.204;11.556;2023-07-13T00:17:30;4.68;;;2.60;;
57605;SDS011;43430;48.204;11.556;2023-07-13T00:19:55;6.28;;;3.38;;
57605;SDS011;43430;48.204;11.556;2023-07-13T00:22:22;7.00;;;3.50;;
57605;SDS011;43430;48.204;11.556;2023-07-13T00:24:50;4.68;;;2.22;;
57605;SDS011;43430;48.204;11.556;2023-07-13T00:27:16;5.78;;;3.20;;
57605;SDS011;43430;48.204;11.556;2023-07-13T00:29:42;5.20;;;3.00;;
57605;SDS011;43430;48.204;11.556;2023-07-13T00:32:08;7.57;;;3.35;;
57605;SDS011;43430;48.204;11.556;2023-07-13T00:34:34;5.07;;;2.90;;
57605;SDS011;43430;48.204;11.556;2023-07-13T00:37:00;5.60;;;2.92;;
57605;SDS011;43430;48.204;11.556;2023-07-13T00:39:26;6.55;;;2.67;;
57605;SDS011;43430;48.204;11.556;2023-07-13T00:41:52;6.55;;;2.90;;
57605;SDS011;43430;48.204;11.556;2023-07-13T00:44:18;4.57;;;2.90;;
57605;SDS011;43430;48.204;11.556;2023-07-13T00:46:44;5.88;;;2.92;;
57605;SDS011;43430;48.204;11.556;2023-07-13T00:49:12;7.32;;;3.15;;
57605;SDS011;43430;48.204;11.556;2023-07-13T00:51:44;4.68;;;2.95;;
57605;SDS011;43430;48.204;11.556;2023-07-13T00:54:13;8.18;;;2.67;;
57605;SDS011;43430;48.204;11.556;2023-07-13T00:56:43;5.00;;;2.75;;
57605;SDS011;43430;48.204;11.556;2023-07-13T00:59:11;5.43;;;2.45;;
57605;SDS011;43430;48.204;11.556;2023-07-13T01:01:38;4.65;;;2.38;;
57605;SDS011;43430;48.204;11.556;2023-07-13T01:04:04;5.78;;;2.75;;
57605;SDS011;43430;48.204;11.556;2023-07-13T01:06:32;4.90;;;2.70;;
57605;SDS011;43430;48.204;11.556;2023-07-13T01:09:02;3.60;;;2.33;;
57605;SDS011;43430;48.204;11.556;2023-07-13T01:11:27;4.25;;;2.60;;
57605;SDS011;43430;48.204;11.556;2023-07-13T01:13:53;5.45;;;2.33;;
57605;SDS011;43430;48.204;11.556;2023-07-13T01:16:24;6.07;;;2.30;;
57605;SDS011;43430;48.204;11.556;2023-07-13T01:18:51;5.80;;;2.38;;
57605;SDS011;43430;48.204;11.556;2023-07-13T01:21:17;6.95;;;2.83;;
57605;SDS011;43430;48.204;11.556;2023-07-13T01:23:44;4.68;;;2.58;;
57605;SDS011;43430;48.204;11.556;2023-07-13T01:26:09;5.50;;;2.33;;
57605;SDS011;43430;48.204;11.556;2023-07-13T01:28:35;6.22;;;2.45;;
57605;SDS011;43430;48.204;11.556;2023-07-13T01:31:02;6.00;;;2.53;;
57605;SDS011;43430;48.204;11.556;2023-07-13T01:33:28;6.28;;;2.20;;
57605;SDS011;43430;48.204;11.556;2023-07-13T01:35:53;5.03;;;2.55;;
57605;SDS011;43430;48.204;11.556;2023-07-13T01:38:20;3.60;;;1.92;;
57605;SDS011;43430;48.204;11.556;2023-07-13T01:40:47;5.30;;;2.40;;
57605;SDS011;43430;48.204;11.556;2023-07-13T01:43:13;5.05;;;2.42;;
57605;SDS011;43430;48.204;11.556;2023-07-13T01:45:38;4.88;;;2.63;;
57605;SDS011;43430;48.204;11.556;2023-07-13T01:48:04;6.47;;;3.28;;
57605;SDS011;43430;48.204;11.556;2023-07-13T01:50:31;9.73;;;3.25;;
57605;SDS011;43430;48.204;11.556;2023-07-13T01:52:57;7.53;;;3.10;;
57605;SDS011;43430;48.204;11.556;2023-07-13T01:55:22;10.10;;;2.75;;
57605;SDS011;43430;48.204;11.556;2023-07-13T01:57:48;6.68;;;2.60;;
57605;SDS011;43430;48.204;11.556;2023-07-13T02:00:14;10.05;;;2.88;;
57605;SDS011;43430;48.204;11.556;2023-07-13T02:02:39;6.32;;;2.92;;
57605;SDS011;43430;48.204;11.556;2023-07-13T02:05:05;10.15;;;4.25;;
57605;SDS011;43430;48.204;11.556;2023-07-13T02:07:31;7.40;;;3.90;;
57605;SDS011;43430;48.204;11.556;2023-07-13T02:09:56;9.95;;;3.85;;
57605;SDS011;43430;48.204;11.556;2023-07-13T02:12:21;9.50;;;4.00;;
57605;SDS011;43430;48.204;11.556;2023-07-13T02:14:47;6.13;;;3.35;;
57605;SDS011;43430;48.204;11.556;2023-07-13T02:17:13;9.57;;;4.07;;
57605;SDS011;43430;48.204;11.556;2023-07-13T02:19:38;5.95;;;3.72;;
57605;SDS011;43430;48.204;11.556;2023-07-13T02:22:04;10.63;;;3.90;;
57605;SDS011;43430;48.204;11.556;2023-07-13T02:24:29;8.88;;;4.20;;
57605;SDS011;43430;48.204;11.556;2023-07-13T02:26:54;10.57;;;4.05;;
57605;SDS011;43430;48.204;11.556;2023-07-13T02:29:20;9.48;;;4.72;;
57605;SDS011;43430;48.204;11.556;2023-07-13T02:31:45;12.65;;;4.57;;
57605;SDS011;43430;48.204;11.556;2023-07-13T02:34:11;6.75;;;4.35;;
57605;SDS011;43430;48.204;11.556;2023-07-13T02:36:36;7.63;;;4.60;;
57605;SDS011;43430;48.204;11.556;2023-07-13T02:39:02;9.82;;;3.97;;
57605;SDS011;43430;48.204;11.556;2023-07-13T02:41:30;8.68;;;4.53;;
57605;SDS011;43430;48.204;11.556;2023-07-13T02:43:57;9.32;;;4.50;;
57605;SDS011;43430;48.204;11.556;2023-07-13T02:46:30;6.85;;;4.57;;
57605;SDS011;43430;48.204;11.556;2023-07-13T02:48:55;7.78;;;4.20;;
57605;SDS011;43430;48.204;11.556;2023-07-13T02:51:21;7.72;;;4.43;;
57605;SDS011;43430;48.204;11.556;2023-07-13T02:53:46;6.80;;;3.88;;
57605;SDS011;43430;48.204;11.556;2023-07-13T02:56:12;8.18;;;3.92;;
57605;SDS011;43430;48.204;11.556;2023-07-13T02:58:37;14.95;;;4.72;;
57605;SDS011;43430;48.204;11.556;2023-07-13T03:01:06;8.60;;;5.35;;
57605;SDS011;43430;48.204;11.556;2023-07-13T03:03:33;9.27;;;5.15;;
57605;SDS011;43430;48.204;11.556;2023-07-13T03:05:59;10.27;;;5.18;;
57605;SDS011;43430;48.204;11.556;2023-07-13T03:08:27;9.85;;;4.72;;
57605;SDS011;43430;48.204;11.556;2023-07-13T03:10:59;9.20;;;4.75;;
57605;SDS011;43430;48.204;11.556;2023-07-13T03:13:45;9.40;;;4.80;;
57605;SDS011;43430;48.204;11.556;2023-07-13T03:16:10;10.57;;;5.32;;
57605;SDS011;43430;48.204;11.556;2023-07-13T03:18:36;12.00;;;5.05;;
57605;SDS011;43430;48.204;11.556;2023-07-13T03:21:03;13.00;;;4.93;;
57605;SDS011;43430;48.204;11.556;2023-07-13T03:23:29;10.23;;;4.55;;
57605;SDS011;43430;48.204;11.556;2023-07-13T03:26:11;9.73;;;4.68;;
57605;SDS011;43430;48.204;11.556;2023-07-13T03:28:39;8.00;;;4.20;;
57605;SDS011;43430;48.204;11.556;2023-07-13T03:31:09;7.40;;;4.38;;
57605;SDS011;43430;48.204;11.556;2023-07-13T03:33:39;8.32;;;4.90;;
57605;SDS011;43430;48.204;11.556;2023-07-13T03:36:05;9.60;;;4.78;;
57605;SDS011;43430;48.204;11.556;2023-07-13T03:38:33;9.85;;;4.70;;
57605;SDS011;43430;48.204;11.556;2023-07-13T03:40:59;10.65;;;4.63;;
57605;SDS011;43430;48.204;11.556;2023-07-13T03:43:27;8.65;;;4.80;;
57605;SDS011;43430;48.204;11.556;2023-07-13T03:45:52;11.82;;;4.47;;
57605;SDS011;43430;48.204;11.556;2023-07-13T03:48:17;7.85;;;4.20;;
57605;SDS011;43430;48.204;11.556;2023-07-13T03:50:43;9.57;;;4.75;;
57605;SDS011;43430;48.204;11.556;2023-07-13T03:53:08;7.75;;;4.03;;
57605;SDS011;43430;48.204;11.556;2023-07-13T03:55:34;9.82;;;4.35;;
57605;SDS011;43430;48.204;11.556;2023-07-13T03:58:01;9.85;;;4.40;;
57605;SDS011;43430;48.204;11.556;2023-07-13T04:00:48;7.75;;;4.20;;
57605;SDS011;43430;48.204;11.556;2023-07-13T04:03:15;9.18;;;4.68;;
57605;SDS011;43430;48.204;11.556;2023-07-13T04:05:41;8.05;;;4.10;;
57605;SDS011;43430;48.204;11.556;2023-07-13T04:08:06;6.05;;;3.15;;
57605;SDS011;43430;48.204;11.556;2023-07-13T04:10:32;6.45;;;3.80;;
57605;SDS011;43430;48.204;11.556;2023-07-13T04:12:57;8.30;;;3.75;;
57605;SDS011;43430;48.204;11.556;2023-07-13T04:15:23;8.30;;;3.50;;
57605;SDS011;43430;48.204;11.556;2023-07-13T04:17:48;7.97;;;3.63;;
57605;SDS011;43430;48.204;11.556;2023-07-13T04:20:13;6.63;;;3.15;;
57605;SDS011;43430;48.204;11.556;2023-07-13T04:22:39;4.65;;;2.20;;
57605;SDS011;43430;48.204;11.556;2023-07-13T04:25:04;5.45;;;2.58;;
57605;SDS011;43430;48.204;11.556;2023-07-13T04:27:30;8.43;;;3.08;;
57605;SDS011;43430;48.204;11.556;2023-07-13T04:29:56;6.72;;;3.38;;
57605;SDS011;43430;48.204;11.556;2023-07-13T04:32:21;6.78;;;3.05;;
57605;SDS011;43430;48.204;11.556;2023-07-13T04:34:46;4.40;;;2.60;;
57605;SDS011;43430;48.204;11.556;2023-07-13T04:37:12;6.88;;;2.80;;
57605;SDS011;43430;48.204;11.556;2023-07-13T04:39:37;4.78;;;2.95;;
57605;SDS011;43430;48.204;11.556;2023-07-13T04:42:03;7.75;;;3.25;;
57605;SDS011;43430;48.204;11.556;2023-07-13T04:44:29;5.90;;;2.70;;
57605;SDS011;43430;48.204;11.556;2023-07-13T04:46:54;8.82;;;2.90;;
57605;SDS011;43430;48.204;11.556;2023-07-13T04:49:20;8.73;;;2.83;;
57605;SDS011;43430;48.204;11.556;2023-07-13T04:51:45;4.40;;;2.70;;
57605;SDS011;43430;48.204;11.556;2023-07-13T04:54:10;7.10;;;2.40;;
57605;SDS011;43430;48.204;11.556;2023-07-13T04:56:36;6.95;;;2.65;;
57605;SDS011;43430;48.204;11.556;2023-07-13T04:59:01;5.70;;;2.75;;
57605;SDS011;43430;48.204;11.556;2023-07-13T05:01:27;6.07;;;2.75;;
57605;SDS011;43430;48.204;11.556;2023-07-13T05:03:52;5.05;;;2.20;;
57605;SDS011;43430;48.204;11.556;2023-07-13T05:06:17;8.63;;;3.15;;
57605;SDS011;43430;48.204;11.556;2023-07-13T05:08:43;6.72;;;2.70;;
57605;SDS011;43430;48.204;11.556;2023-07-13T05:11:08;5.45;;;2.70;;
57605;SDS011;43430;48.204;11.556;2023-07-13T05:13:33;7.40;;;2.72;;
57605;SDS011;43430;48.204;11.556;2023-07-13T05:16:00;5.68;;;2.80;;
57605;SDS011;43430;48.204;11.556;2023-07-13T05:18:27;5.28;;;2.83;;
57605;SDS011;43430;48.204;11.556;2023-07-13T05:20:57;7.18;;;2.25;;
57605;SDS011;43430;48.204;11.556;2023-07-13T05:23:33;4.95;;;2.65;;
57605;SDS011;43430;48.204;11.556;2023-07-13T05:25:59;5.28;;;2.28;;
57605;SDS011;43430;48.204;11.556;2023-07-13T05:28:25;3.65;;;2.10;;
57605;SDS011;43430;48.204;11.556;2023-07-13T05:30:52;6.47;;;2.13;;
57605;SDS011;43430;48.204;11.556;2023-07-13T05:33:19;5.00;;;2.40;;
57605;SDS011;43430;48.204;11.556;2023-07-13T05:35:44;5.30;;;2.63;;
57605;SDS011;43430;48.204;11.556;2023-07-13T05:38:10;11.60;;;3.08;;
57605;SDS011;43430;48.204;11.556;2023-07-13T05:40:35;5.78;;;3.05;;
57605;SDS011;43430;48.204;11.556;2023-07-13T05:43:00;5.00;;;2.50;;
57605;SDS011;43430;48.204;11.556;2023-07-13T05:45:26;5.47;;;2.17;;
57605;SDS011;43430;48.204;11.556;2023-07-13T05:47:51;6.57;;;2.85;;
57605;SDS011;43430;48.204;11.556;2023-07-13T05:50:17;5.03;;;2.17;;
57605;SDS011;43430;48.204;11.556;2023-07-13T05:52:42;7.68;;;2.33;;
57605;SDS011;43430;48.204;11.556;2023-07-13T05:55:08;5.90;;;2.40;;
57605;SDS011;43430;48.204;11.556;2023-07-13T05:57:33;4.97;;;2.30;;
57605;SDS011;43430;48.204;11.556;2023-07-13T05:59:59;4.45;;;2.60;;
57605;SDS011;43430;48.204;11.556;2023-07-13T06:02:24;5.28;;;2.78;;
57605;SDS011;43430;48.204;11.556;2023-07-13T06:04:50;5.63;;;2.30;;
57605;SDS011;43430;48.204;11.556;2023-07-13T06:07:15;5.95;;;2.75;;
57605;SDS011;43430;48.204;11.556;2023-07-13T06:09:41;4.80;;;2.25;;
57605;SDS011;43430;48.204;11.556;2023-07-13T06:12:06;5.93;;;2.17;;
57605;SDS011;43430;48.204;11.556;2023-07-13T06:14:32;3.92;;;2.20;;
57605;SDS011;43430;48.204;11.556;2023-07-13T06:16:57;5.55;;;2.03;;
57605;SDS011;43430;48.204;11.556;2023-07-13T06:19:23;6.00;;;2.53;;
57605;SDS011;43430;48.204;11.556;2023-07-13T06:21:48;5.00;;;2.35;;
57605;SDS011;43430;48.204;11.556;2023-07-13T06:24:13;4.57;;;2.80;;
57605;SDS011;43430;48.204;11.556;2023-07-13T06:26:38;5.63;;;2.58;;
57605;SDS011;43430;48.204;11.556;2023-07-13T06:29:04;5.90;;;2.33;;
57605;SDS011;43430;48.204;11.556;2023-07-13T06:31:30;4.18;;;1.60;;
57605;SDS011;43430;48.204;11.556;2023-07-13T06:33:56;3.75;;;1.75;;
57605;SDS011;43430;48.204;11.556;2023-07-13T06:36:21;4.57;;;2.22;;
57605;SDS011;43430;48.204;11.556;2023-07-13T06:38:46;5.35;;;1.70;;
57605;SDS011;43430;48.204;11.556;2023-07-13T06:41:12;9.15;;;2.20;;
57605;SDS011;43430;48.204;11.556;2023-07-13T06:43:37;4.47;;;1.58;;
57605;SDS011;43430;48.204;11.556;2023-07-13T06:46:03;5.05;;;1.48;;
57605;SDS011;43430;48.204;11.556;2023-07-13T06:48:28;7.10;;;1.50;;
57605;SDS011;43430;48.204;11.556;2023-07-13T06:50:54;4.60;;;1.50;;
57605;SDS011;43430;48.204;11.556;2023-07-13T06:53:19;3.47;;;1.42;;
57605;SDS011;43430;48.204;11.556;2023-07-13T06:55:45;5.22;;;1.38;;
57605;SDS011;43430;48.204;11.556;2023-07-13T06:58:11;3.40;;;1.38;;
57605;SDS011;43430;48.204;11.556;2023-07-13T07:00:37;4.03;;;1.67;;
57605;SDS011;43430;48.204;11.556;2023-07-13T07:03:05;5.35;;;1.63;;
57605;SDS011;43430;48.204;11.556;2023-07-13T07:05:30;3.72;;;1.38;;
57605;SDS011;43430;48.204;11.556;2023-07-13T07:07:55;5.50;;;1.30;;
57605;SDS011;43430;48.204;11.556;2023-07-13T07:10:21;4.57;;;1.10;;
57605;SDS011;43430;48.204;11.556;2023-07-13T07:12:47;3.50;;;1.05;;
57605;SDS011;43430;48.204;11.556;2023-07-13T07:15:12;4.43;;;1.27;;
57605;SDS011;43430;48.204;11.556;2023-07-13T07:17:38;4.03;;;1.27;;
57605;SDS011;43430;48.204;11.556;2023-07-13T07:20:04;3.65;;;1.20;;
57605;SDS011;43430;48.204;11.556;2023-07-13T07:22:30;5.70;;;0.90;;
57605;SDS011;43430;48.204;11.556;2023-07-13T07:24:56;5.15;;;0.88;;
57605;SDS011;43430;48.204;11.556;2023-07-13T07:27:22;3.13;;;0.98;;
57605;SDS011;43430;48.204;11.556;2023-07-13T07:29:48;2.95;;;0.98;;
57605;SDS011;43430;48.204;11.556;2023-07-13T07:32:14;5.18;;;1.05;;
57605;SDS011;43430;48.204;11.556;2023-07-13T07:34:39;7.57;;;1.70;;
57605;SDS011;43430;48.204;11.556;2023-07-13T07:37:04;3.33;;;1.20;;
57605;SDS011;43430;48.204;11.556;2023-07-13T07:39:30;4.68;;;1.17;;
57605;SDS011;43430;48.204;11.556;2023-07-13T07:41:56;3.72;;;1.27;;
57605;SDS011;43430;48.204;11.556;2023-07-13T07:44:22;3.30;;;1.00;;
57605;SDS011;43430;48.204;11.556;2023-07-13T07:46:47;3.10;;;0.77;;
57605;SDS011;43430;48.204;11.556;2023-07-13T07:49:12;6.15;;;1.10;;
57605;SDS011;43430;48.204;11.556;2023-07-13T07:51:38;4.57;;;1.50;;
57605;SDS011;43430;48.204;11.556;2023-07-13T07:54:04;3.22;;;1.15;;
57605;SDS011;43430;48.204;11.556;2023-07-13T07:56:30;3.35;;;1.17;;
57605;SDS011;43430;48.204;11.556;2023-07-13T07:58:55;6.47;;;1.25;;
57605;SDS011;43430;48.204;11.556;2023-07-13T08:01:21;3.50;;;1.15;;
57605;SDS011;43430;48.204;11.556;2023-07-13T08:03:46;4.47;;;0.95;;
57605;SDS011;43430;48.204;11.556;2023-07-13T08:06:12;3.33;;;1.40;;
57605;SDS011;43430;48.204;11.556;2023-07-13T08:08:38;3.78;;;1.10;;
57605;SDS011;43430;48.204;11.556;2023-07-13T08:11:04;3.10;;;1.25;;
57605;SDS011;43430;48.204;11.556;2023-07-13T08:13:32;5.32;;;1.23;;
57605;SDS011;43430;48.204;11.556;2023-07-13T08:15:57;4.32;;;0.98;;
57605;SDS011;43430;48.204;11.556;2023-07-13T08:18:23;4.65;;;1.10;;
57605;SDS011;43430;48.204;11.556;2023-07-13T08:20:49;4.80;;;1.30;;
57605;SDS011;43430;48.204;11.556;2023-07-13T08:23:14;6.93;;;1.55;;
57605;SDS011;43430;48.204;11.556;2023-07-13T08:25:41;4.38;;;1.10;;
57605;SDS011;43430;48.204;11.556;2023-07-13T08:28:07;2.97;;;1.05;;
57605;SDS011;43430;48.204;11.556;2023-07-13T08:30:32;5.38;;;0.85;;
57605;SDS011;43430;48.204;11.556;2023-07-13T08:32:58;4.00;;;0.98;;
57605;SDS011;43430;48.204;11.556;2023-07-13T08:35:23;2.20;;;1.00;;
57605;SDS011;43430;48.204;11.556;2023-07-13T08:37:50;3.45;;;0.85;;
57605;SDS011;43430;48.204;11.556;2023-07-13T08:40:24;2.10;;;0.93;;
57605;SDS011;43430;48.204;11.556;2023-07-13T08:42:59;3.22;;;1.00;;
57605;SDS011;43430;48.204;11.556;2023-07-13T08:45:44;4.50;;;1.02;;
57605;SDS011;43430;48.204;11.556;2023-07-13T08:51:09;1.35;;;0.70;;
57605;SDS011;43430;48.204;11.556;2023-07-13T08:53:49;3.03;;;0.98;;
57605;SDS011;43430;48.204;11.556;2023-07-13T08:56:23;2.30;;;0.60;;
57605;SDS011;43430;48.204;11.556;2023-07-13T09:06:42;4.15;;;1.00;;
57605;SDS011;43430;48.204;11.556;2023-07-13T09:11:56;2.17;;;0.80;;
57605;SDS011;43430;48.204;11.556;2023-07-13T09:14:46;3.05;;;0.80;;
57605;SDS011;43430;48.204;11.556;2023-07-13T09:17:24;4.20;;;1.10;;
57605;SDS011;43430;48.204;11.556;2023-07-13T09:20:03;3.83;;;0.98;;
57605;SDS011;43430;48.204;11.556;2023-07-13T09:22:41;2.47;;;0.77;;
57605;SDS011;43430;48.204;11.556;2023-07-13T09:25:21;2.50;;;0.63;;
57605;SDS011;43430;48.204;11.556;2023-07-13T09:27:47;9.57;;;0.90;;
57605;SDS011;43430;48.204;11.556;2023-07-13T09:32:39;2.78;;;0.60;;
57605;SDS011;43430;48.204;11.556;2023-07-13T09:35:12;3.03;;;0.80;;
57605;SDS011;43430;48.204;11.556;2023-07-13T09:37:39;4.13;;;0.80;;
57605;SDS011;43430;48.204;11.556;2023-07-13T09:40:08;2.75;;;1.00;;
57605;SDS011;43430;48.204;11.556;2023-07-13T09:42:42;2.42;;;0.63;;
57605;SDS011;43430;48.204;11.556;2023-07-13T09:45:08;3.72;;;0.68;;
57605;SDS011;43430;48.204;11.556;2023-07-13T09:47:38;4.78;;;1.15;;
57605;SDS011;43430;48.204;11.556;2023-07-13T09:50:10;4.05;;;0.88;;
57605;SDS011;43430;48.204;11.556;2023-07-13T09:52:45;1.80;;;0.70;;
57605;SDS011;43430;48.204;11.556;2023-07-13T10:00:39;5.30;;;1.20;;
57605;SDS011;43430;48.204;11.556;2023-07-13T10:03:22;3.28;;;0.70;;
57605;SDS011;43430;48.204;11.556;2023-07-13T10:05:52;3.15;;;0.82;;
57605;SDS011;43430;48.204;11.556;2023-07-13T10:08:20;3.55;;;0.73;;
57605;SDS011;43430;48.204;11.556;2023-07-13T10:10:52;1.13;;;0.50;;
57605;SDS011;43430;48.204;11.556;2023-07-13T10:13:26;2.55;;;0.75;;
57605;SDS011;43430;48.204;11.556;2023-07-13T10:15:55;2.30;;;0.77;;
57605;SDS011;43430;48.204;11.556;2023-07-13T10:18:21;4.35;;;1.10;;
57605;SDS011;43430;48.204;11.556;2023-07-13T10:20:48;3.85;;;0.73;;
57605;SDS011;43430;48.204;11.556;2023-07-13T10:23:20;3.65;;;1.00;;
57605;SDS011;43430;48.204;11.556;2023-07-13T10:28:35;2.75;;;0.98;;
57605;SDS011;43430;48.204;11.556;2023-07-13T10:31:03;3.72;;;0.90;;
57605;SDS011;43430;48.204;11.556;2023-07-13T10:33:36;3.05;;;0.60;;
57605;SDS011;43430;48.204;11.556;2023-07-13T10:38:39;3.75;;;0.70;;
57605;SDS011;43430;48.204;11.556;2023-07-13T10:41:07;4.63;;;0.70;;
57605;SDS011;43430;48.204;11.556;2023-07-13T10:43:42;2.83;;;0.60;;
57605;SDS011;43430;48.204;11.556;2023-07-13T10:46:12;6.07;;;1.02;;
57605;SDS011;43430;48.204;11.556;2023-07-13T10:48:40;2.35;;;0.90;;
57605;SDS011;43430;48.204;11.556;2023-07-13T10:51:08;3.75;;;0.90;;
57605;SDS011;43430;48.204;11.556;2023-07-13T10:53:37;3.60;;;0.77;;
57605;SDS011;43430;48.204;11.556;2023-07-13T10:56:06;2.38;;;0.90;;
57605;SDS011;43430;48.204;11.556;2023-07-13T10:59:01;3.40;;;1.02;;
57605;SDS011;43430;48.204;11.556;2023-07-13T11:01:48;1.75;;;0.80;;
57605;SDS011;43430;48.204;11.556;2023-07-13T11:04:18;4.30;;;1.05;;
57605;SDS011;43430;48.204;11.556;2023-07-13T11:06:45;4.55;;;1.02;;
57605;SDS011;43430;48.204;11.556;2023-07-13T11:09:34;2.85;;;0.90;;
57605;SDS011;43430;48.204;11.556;2023-07-13T11:12:03;6.72;;;1.15;;
57605;SDS011;43430;48.204;11.556;2023-07-13T11:22:41;6.95;;;1.20;;
57605;SDS011;43430;48.204;11.556;2023-07-13T11:31:01;4.07;;;0.80;;
57605;SDS011;43430;48.204;11.556;2023-07-13T11:36:12;2.60;;;0.60;;
57605;SDS011;43430;48.204;11.556;2023-07-13T11:38:40;5.30;;;0.90;;
57605;SDS011;43430;48.204;11.556;2023-07-13T11:44:16;2.47;;;0.95;;
57605;SDS011;43430;48.204;11.556;2023-07-13T11:46:47;6.60;;;1.20;;
57605;SDS011;43430;48.204;11.556;2023-07-13T11:49:19;2.72;;;0.95;;
57605;SDS011;43430;48.204;11.556;2023-07-13T11:51:46;3.30;;;0.85;;
57605;SDS011;43430;48.204;11.556;2023-07-13T11:56:51;2.67;;;0.80;;
57605;SDS011;43430;48.204;11.556;2023-07-13T11:59:17;3.08;;;0.70;;
57605;SDS011;43430;48.204;11.556;2023-07-13T12:01:44;3.30;;;0.85;;
57605;SDS011;43430;48.204;11.556;2023-07-13T12:04:23;2.42;;;1.00;;
57605;SDS011;43430;48.204;11.556;2023-07-13T12:09:39;3.67;;;1.02;;
57605;SDS011;43430;48.204;11.556;2023-07-13T12:12:28;2.70;;;0.88;;
57605;SDS011;43430;48.204;11.556;2023-07-13T12:14:54;4.70;;;1.02;;
57605;SDS011;43430;48.204;11.556;2023-07-13T12:17:21;3.70;;;1.10;;
57605;SDS011;43430;48.204;11.556;2023-07-13T12:19:48;3.20;;;1.02;;
57605;SDS011;43430;48.204;11.556;2023-07-13T12:22:16;2.92;;;0.88;;
57605;SDS011;43430;48.204;11.556;2023-07-13T12:24:43;3.60;;;0.88;;
57605;SDS011;43430;48.204;11.556;2023-07-13T12:27:23;2.35;;;0.70;;
57605;SDS011;43430;48.204;11.556;2023-07-13T12:30:00;3.55;;;1.13;;
57605;SDS011;43430;48.204;11.556;2023-07-13T12:32:30;3.45;;;1.00;;
57605;SDS011;43430;48.204;11.556;2023-07-13T12:34:57;10.07;;;1.38;;
57605;SDS011;43430;48.204;11.556;2023-07-13T12:37:46;3.65;;;1.05;;
57605;SDS011;43430;48.204;11.556;2023-07-13T12:40:16;1.60;;;0.47;;
57605;SDS011;43430;48.204;11.556;2023-07-13T12:42:47;2.38;;;0.85;;
57605;SDS011;43430;48.204;11.556;2023-07-13T12:47:50;2.40;;;0.65;;
57605;SDS011;43430;48.204;11.556;2023-07-13T12:50:20;2.72;;;0.80;;
57605;SDS011;43430;48.204;11.556;2023-07-13T12:52:56;3.20;;;1.10;;
57605;SDS011;43430;48.204;11.556;2023-07-13T12:55:26;2.65;;;0.77;;
57605;SDS011;43430;48.204;11.556;2023-07-13T12:57:54;3.67;;;0.95;;
57605;SDS011;43430;48.204;11.556;2023-07-13T13:00:29;2.40;;;0.90;;
57605;SDS011;43430;48.204;11.556;2023-07-13T13:03:07;1.75;;;0.77;;
57605;SDS011;43430;48.204;11.556;2023-07-13T13:05:56;3.58;;;1.15;;
57605;SDS011;43430;48.204;11.556;2023-07-13T13:08:28;4.15;;;1.05;;
57605;SDS011;43430;48.204;11.556;2023-07-13T13:10:54;2.17;;;0.80;;
57605;SDS011;43430;48.204;11.556;2023-07-13T13:13:23;6.50;;;0.88;;
57605;SDS011;43430;48.204;11.556;2023-07-13T13:15:49;2.45;;;0.98;;
57605;SDS011;43430;48.204;11.556;2023-07-13T13:18:15;2.33;;;0.93;;
57605;SDS011;43430;48.204;11.556;2023-07-13T13:20:41;2.30;;;0.90;;
57605;SDS011;43430;48.204;11.556;2023-07-13T13:23:10;2.17;;;0.90;;
57605;SDS011;43430;48.204;11.556;2023-07-13T13:25:37;2.22;;;0.98;;
57605;SDS011;43430;48.204;11.556;2023-07-13T13:28:03;2.65;;;1.23;;
57605;SDS011;43430;48.204;11.556;2023-07-13T13:30:28;2.53;;;1.08;;
57605;SDS011;43430;48.204;11.556;2023-07-13T13:32:53;3.47;;;0.75;;
57605;SDS011;43430;48.204;11.556;2023-07-13T13:35:19;3.42;;;1.08;;
57605;SDS011;43430;48.204;11.556;2023-07-13T13:37:46;2.80;;;1.02;;
57605;SDS011;43430;48.204;11.556;2023-07-13T13:40:17;3.05;;;1.17;;
57605;SDS011;43430;48.204;11.556;2023-07-13T13:42:44;5.17;;;1.00;;
57605;SDS011;43430;48.204;11.556;2023-07-13T13:45:12;3.78;;;0.90;;
57605;SDS011;43430;48.204;11.556;2023-07-13T13:47:38;2.60;;;0.70;;
57605;SDS011;43430;48.204;11.556;2023-07-13T13:50:15;3.28;;;0.90;;
57605;SDS011;43430;48.204;11.556;2023-07-13T13:52:42;2.38;;;0.77;;
57605;SDS011;43430;48.204;11.556;2023-07-13T13:55:15;1.50;;;0.70;;
57605;SDS011;43430;48.204;11.556;2023-07-13T13:57:44;2.42;;;0.93;;
57605;SDS011;43430;48.204;11.556;2023-07-13T14:00:10;2.20;;;0.90;;
57605;SDS011;43430;48.204;11.556;2023-07-13T14:02:46;2.55;;;0.80;;
57605;SDS011;43430;48.204;11.556;2023-07-13T14:05:15;2.35;;;0.90;;
57605;SDS011;43430;48.204;11.556;2023-07-13T14:07:46;3.63;;;1.20;;
57605;SDS011;43430;48.204;11.556;2023-07-13T14:10:13;2.17;;;1.02;;
57605;SDS011;43430;48.204;11.556;2023-07-13T14:12:41;3.63;;;0.93;;
57605;SDS011;43430;48.204;11.556;2023-07-13T14:17:47;3.35;;;1.10;;
57605;SDS011;43430;48.204;11.556;2023-07-13T14:20:15;3.17;;;1.00;;
57605;SDS011;43430;48.204;11.556;2023-07-13T14:22:41;2.60;;;1.00;;
57605;SDS011;43430;48.204;11.556;2023-07-13T14:25:11;2.75;;;1.00;;
57605;SDS011;43430;48.204;11.556;2023-07-13T14:27:37;3.88;;;1.15;;
57605;SDS011;43430;48.204;11.556;2023-07-13T14:30:05;4.15;;;1.17;;
57605;SDS011;43430;48.204;11.556;2023-07-13T14:32:37;3.33;;;0.85;;
57605;SDS011;43430;48.204;11.556;2023-07-13T14:35:03;3.13;;;0.80;;
57605;SDS011;43430;48.204;11.556;2023-07-13T14:37:28;3.70;;;0.93;;
57605;SDS011;43430;48.204;11.556;2023-07-13T14:39:54;2.33;;;0.85;;
57605;SDS011;43430;48.204;11.556;2023-07-13T14:42:19;1.50;;;0.70;;
57605;SDS011;43430;48.204;11.556;2023-07-13T14:44:45;1.63;;;0.70;;
57605;SDS011;43430;48.204;11.556;2023-07-13T14:47:10;4.05;;;1.02;;
57605;SDS011;43430;48.204;11.556;2023-07-13T14:49:37;4.60;;;1.08;;
57605;SDS011;43430;48.204;11.556;2023-07-13T14:52:12;2.20;;;0.75;;
57605;SDS011;43430;48.204;11.556;2023-07-13T14:54:43;3.60;;;1.08;;
57605;SDS011;43430;48.204;11.556;2023-07-13T14:57:10;3.13;;;0.82;;
57605;SDS011;43430;48.204;11.556;2023-07-13T14:59:40;2.70;;;1.10;;
57605;SDS011;43430;48.204;11.556;2023-07-13T15:02:30;2.63;;;1.10;;
57605;SDS011;43430;48.204;11.556;2023-07-13T15:04:58;2.95;;;1.00;;
57605;SDS011;43430;48.204;11.556;2023-07-13T15:07:24;2.88;;;1.00;;
57605;SDS011;43430;48.204;11.556;2023-07-13T15:09:50;3.35;;;1.25;;
57605;SDS011;43430;48.204;11.556;2023-07-13T15:12:16;3.90;;;1.60;;
57605;SDS011;43430;48.204;11.556;2023-07-13T15:14:42;2.45;;;1.30;;
57605;SDS011;43430;48.204;11.556;2023-07-13T15:17:18;2.47;;;1.05;;
57605;SDS011;43430;48.204;11.556;2023-07-13T15:20:25;3.90;;;1.27;;
57605;SDS011;43430;48.204;11.556;2023-07-13T15:22:53;1.80;;;1.15;;
57605;SDS011;43430;48.204;11.556;2023-07-13T15:25:20;4.38;;;1.55;;
57605;SDS011;43430;48.204;11.556;2023-07-13T15:27:47;1.77;;;1.20;;
57605;SDS011;43430;48.204;11.556;2023-07-13T15:30:13;3.00;;;1.35;;
57605;SDS011;43430;48.204;11.556;2023-07-13T15:32:42;3.25;;;1.33;;
57605;SDS011;43430;48.204;11.556;2023-07-13T15:35:19;3.00;;;1.40;;